< Typhoon 199609 1996 Season Typhoon 199611 >
Typhoon 199610 (JOY)
General InformationTrack Information on Google MapsDetailed Wind InformationList of All Images || Disaster Info.ResourceGoogle EarthGE AnimationAtom FeedGeoJSON
Detalied Best Track (Time Zone = UTC)
Year Month Day Hour Lat. Long. Pressure (hPa) Wind (kt) Class Image Chart
1996 7 30 00 25.8 154.3 1012 0 2 Image Chart
1996 7 30 06 25.9 154.2 1010 0 2 Image Chart
1996 7 30 12 26.2 154.0 1008 0 2 Image Chart
1996 7 30 18 26.5 153.9 1008 0 2 Image Chart
1996 7 31 00 26.9 154.0 1008 0 2 Image Chart
1996 7 31 06 27.4 154.0 1008 0 2 Image Chart
1996 7 31 12 28.0 153.7 1006 0 2 Image Chart
1996 7 31 18 28.4 153.1 1004 35 3 Image Chart
1996 8 1 00 28.9 152.4 998 35 3 Image Chart
1996 8 1 06 29.5 152.1 998 35 3 Image Chart
1996 8 1 12 30.2 151.9 998 35 3 Image Chart
1996 8 1 18 30.4 151.7 998 35 3 Image Chart
1996 8 2 00 31.1 152.0 996 40 3 Image Chart
1996 8 2 06 31.7 152.3 985 50 4 Image Chart
1996 8 2 12 32.1 152.9 980 50 4 Image Chart
1996 8 2 18 32.2 153.8 980 50 4 Image Chart
1996 8 3 00 32.1 154.5 980 55 4 Image Chart
1996 8 3 06 32.3 155.1 985 50 4 Image Chart
1996 8 3 12 32.6 155.5 990 45 3 Image Chart
1996 8 3 18 32.7 155.6 990 45 3 Image Chart
1996 8 4 00 32.9 155.4 994 45 3 Image Chart
1996 8 4 06 33.1 155.1 998 40 3 Image Chart
1996 8 4 12 33.6 154.8 1000 0 2 Image Chart
1996 8 4 18 34.5 154.9 1000 0 2 Image Chart
1996 8 5 00 35.1 155.2 1000 0 2 Image Chart
1996 8 5 06 36.1 155.9 1000 0 2 Image Chart
1996 8 5 12 37.4 156.8 1000 0 2 Image Chart
1996 8 5 18 39.0 157.5 1000 0 2 Image Chart
1996 8 6 00 41.4 158.2 1000 0 2 Image Chart
1996 8 6 06 44.3 159.3 1000 0 6 Image Chart
1996 8 6 12 49.0 161.0 1008 0 6 Image Chart
Japan Meteorological Agency Best Track Data | Correction Date : 1997-01-07
< Typhoon 199609 1996 Season Typhoon 199611 >

Help